Historique des stations

Station météo de Lys-Saint-Georges

Altitude de la station : 220 m







Données météorologiques pour le 25/09/2022
Date
Heure
Températures Humidité Point de rosée Vitesse
du vent
Direction Rafales Windchill Pression Pluviométrie
Cumul
Date
Heure
Températures Humidité Point de rosée Vitesse
du vent
Direction Rafales Windchill Pression Pluviométrie
Cumul
25/09/2022 16:1015.5 °C81 %12.3 °C6 km/h19 km/h15.51016 hPa13.2 mm
25/09/2022 16:0015.9 °C84 %13.2 °C5 km/h13 km/h15.91016 hPa13.2 mm
25/09/2022 15:4014.9 °C87 %12.7 °C5 km/h13 km/h14.91016 hPa13.2 mm
25/09/2022 15:3014.5 °C90 %12.9 °C4 km/h13 km/h14.51016 hPa13.2 mm
25/09/2022 15:1013.9 °C92 %12.7 °C4 km/h8 km/h13.91016 hPa13.2 mm
25/09/2022 15:0013.5 °C94 %12.6 °C5 km/h10 km/h13.51016 hPa13.2 mm
25/09/2022 14:4013.2 °C95 %12.4 °C5 km/h10 km/h13.21016 hPa13.2 mm
25/09/2022 14:3012.9 °C95 %12.1 °C4 km/h11 km/h12.91016 hPa13.2 mm
25/09/2022 14:1012.9 °C95 %12.1 °C4 km/h13 km/h12.91016 hPa13.2 mm
25/09/2022 14:0013.1 °C94 %12.2 °C4 km/h15 km/h13.11016 hPa13.2 mm
25/09/2022 13:4013.3 °C95 %12.5 °C4 km/h8 km/h13.31016 hPa13.2 mm
25/09/2022 13:3013.4 °C94 %12.4 °C4 km/h10 km/h13.41016 hPa13.2 mm
25/09/2022 13:1013.4 °C94 %12.5 °C4 km/h10 km/h13.41016 hPa13.2 mm
25/09/2022 13:0013.3 °C96 %12.7 °C4 km/hNNE8 km/h13.31016 hPa13.2 mm
25/09/2022 12:4013.0 °C96 %12.4 °C4 km/h11 km/h13.01016 hPa13.2 mm
25/09/2022 12:3012.8 °C97 %12.4 °C4 km/hNNE8 km/h12.81016 hPa13.2 mm
25/09/2022 12:1012.7 °C98 %12.4 °C5 km/h8 km/h12.71015 hPa13.2 mm
25/09/2022 12:0012.4 °C98 %12.1 °C5 km/h8 km/h12.41016 hPa13.0 mm
25/09/2022 11:4012.3 °C98 %12.0 °C6 km/hNNE15 km/h12.31016 hPa13.0 mm
25/09/2022 11:3012.3 °C98 %12.0 °C5 km/h10 km/h12.31016 hPa13.0 mm
25/09/2022 11:1012.2 °C98 %11.9 °C5 km/hNNE10 km/h12.21015 hPa13.0 mm
25/09/2022 11:0012.1 °C98 %11.8 °C5 km/h15 km/h12.11015 hPa13.0 mm
25/09/2022 10:4012.2 °C97 %11.7 °C4 km/hNNE11 km/h12.21015 hPa13.0 mm
25/09/2022 10:3012.4 °C98 %12.1 °C3 km/h10 km/h12.41015 hPa13.0 mm
25/09/2022 10:1012.4 °C98 %12.1 °C2 km/hNNO8 km/h12.41015 hPa13.0 mm
25/09/2022 10:0012.3 °C98 %12.0 °C2 km/hNNO6 km/h12.31015 hPa13.0 mm
25/09/2022 09:4012.3 °C98 %12.0 °C2 km/h6 km/h12.31015 hPa13.0 mm
25/09/2022 09:3012.2 °C98 %11.9 °C2 km/h6 km/h12.21015 hPa13.0 mm
25/09/2022 09:1012.2 °C97 %11.7 °C2 km/h5 km/h12.21015 hPa12.6 mm
25/09/2022 08:4012.1 °C97 %11.6 °C3 km/h6 km/h12.11015 hPa10.2 mm
25/09/2022 08:3012.1 °C97 %11.6 °C3 km/h8 km/h12.11014 hPa8.8 mm
25/09/2022 07:4012.1 °C97 %11.6 °C3 km/hNNO6 km/h12.11014 hPa5.8 mm
25/09/2022 07:3012.1 °C97 %11.6 °C3 km/hNNO5 km/h12.11014 hPa4.6 mm
25/09/2022 06:4012.1 °C97 %11.6 °C4 km/hONO10 km/h12.11014 hPa1.2 mm
25/09/2022 06:1012.2 °C97 %11.7 °C4 km/hONO6 km/h12.21014 hPa1.0 mm
25/09/2022 05:4012.1 °C97 %11.6 °C5 km/hO10 km/h12.11014 hPa0.6 mm
25/09/2022 05:3012.1 °C97 %11.6 °C5 km/hONO10 km/h12.11014 hPa0.2 mm
25/09/2022 04:4012.2 °C97 %11.8 °C2 km/hONO11 km/h12.21014 hPa0.2 mm
25/09/2022 04:3012.3 °C96 %11.7 °C2 km/hO5 km/h12.31014 hPa0.2 mm
25/09/2022 03:4012.3 °C96 %11.7 °C4 km/hNO6 km/h12.31014 hPa0.2 mm
25/09/2022 03:0012.5 °C96 %11.9 °C3 km/hONO11 km/h12.51014 hPa0.0 mm
25/09/2022 02:4012.7 °C96 %12.0 °C3 km/hNO8 km/h12.71014 hPa0.0 mm


Minima :

Température : 12.1 °C
Humidité : 81 %
Point de rosée : 11.6 °C
Vent moyen : 2 km/h
Windchill : 12.1
Pression atm. : 1014 hPa
Maxima :

Température : 15.9 °C
Humidité : 98 %
Point de rosée : 13.2 °C
Vent moyen : 6 km/h
Windchill : 15.9
Pression atm. : 1016 hPa
Rafales max : 19 km/h
Cumul de pluie sur 24H : 13.2 mm

LE Blanc est une commune du département Indre (36).
La station météorologique du réseau de l'association la plus proche de Lys-Saint-Georges est celle de Paulnay



Icône Facebook Association Météo Centre Icône Twitter Association Météo Centre Icône Chaîne Youtube Association Météo Centre Icône contact Association Météo Centre Icône Insta Association Météo Centre